Time;durP1;ratioP1;P1;durP2;ratioP2;P2;SDS_P1;SDS_P2;PMS_P1;PMS_P2;Temp;Humidity;BMP_temperature;BMP_pressure;BME280_temperature;BME280_humidity;BME280_pressure;Samples;Min_cycle;Max_cycle;Signal;HPM_P1;HPM_P2
2023/03/26 00:01:37;;;;;;;0.80;0.55;;;;;;;10.63;66.69;99924.94;5107502;28;20030;-72
2023/03/26 00:04:05;;;;;;;1.23;0.73;;;;;;;10.76;65.93;99940.69;5101072;27;20166;-72
2023/03/26 00:06:35;;;;;;;2.40;0.60;;;;;;;10.65;66.78;99932.84;5100042;28;20024;-72
2023/03/26 00:09:01;;;;;;;0.93;0.70;;;;;;;10.59;66.31;99911.94;5107021;28;20027;-72
2023/03/26 00:11:27;;;;;;;0.60;0.50;;;;;;;10.44;66.41;99902.66;5104780;27;20575;-73
2023/03/26 00:13:56;;;;;;;0.40;0.40;;;;;;;10.40;66.85;99909.31;5104229;28;20023;-72
2023/03/26 00:16:23;;;;;;;0.73;0.50;;;;;;;10.34;66.78;99902.69;5107199;28;20441;-72
2023/03/26 00:18:50;;;;;;;1.40;0.40;;;;;;;10.41;67.04;99935.97;5104091;28;20019;-72
2023/03/26 00:21:19;;;;;;;1.38;0.57;;;;;;;10.31;67.85;99924.41;5105920;28;20525;-71
2023/03/26 00:23:46;;;;;;;1.00;0.68;;;;;;;10.42;67.34;99923.44;5105508;28;20493;-71
2023/03/26 00:26:12;;;;;;;1.20;0.65;;;;;;;10.48;66.80;99931.72;5105643;28;20522;-72
2023/03/26 00:28:40;;;;;;;1.98;0.63;;;;;;;10.47;67.00;99932.72;5105695;28;20034;-72
2023/03/26 00:31:10;;;;;;;0.90;0.50;;;;;;;10.44;66.63;99921.44;5105448;28;20016;-72
2023/03/26 00:33:37;;;;;;;3.75;0.50;;;;;;;10.47;66.48;99921.13;5105777;28;20135;-72
2023/03/26 00:36:05;;;;;;;0.85;0.57;;;;;;;10.42;66.62;99920.75;5105424;28;20031;-71
2023/03/26 00:38:37;;;;;;;0.75;0.43;;;;;;;10.29;67.23;99914.84;5107050;28;20031;-71
2023/03/26 00:41:04;;;;;;;0.32;0.32;;;;;;;10.24;67.38;99899.19;5106182;28;20464;-72
2023/03/26 00:43:32;;;;;;;1.33;0.50;;;;;;;10.33;66.91;99914.41;5106947;28;20023;-73
2023/03/26 00:45:58;;;;;;;0.43;0.40;;;;;;;10.28;67.20;99911.28;5105099;28;20047;-73
2023/03/26 00:48:24;;;;;;;0.60;0.47;;;;;;;10.24;67.27;99912.56;5105654;28;20402;-73
2023/03/26 00:50:50;;;;;;;0.73;0.40;;;;;;;10.18;67.15;99904.25;5106850;28;20024;-72
2023/03/26 00:53:18;;;;;;;0.80;0.50;;;;;;;10.22;67.44;99906.50;5105319;28;20031;-73
2023/03/26 00:55:45;;;;;;;0.90;0.57;;;;;;;10.21;67.45;99898.59;5104848;28;20023;-73
2023/03/26 00:58:12;;;;;;;1.35;0.60;;;;;;;10.11;67.77;99898.63;5106580;28;20026;-72
2023/03/26 01:00:44;;;;;;;2.17;0.60;;;;;;;9.98;68.46;99899.84;5104990;28;20043;-73
2023/03/26 01:03:14;;;;;;;0.57;0.57;;;;;;;9.96;68.81;99904.53;5104871;28;20028;-73
2023/03/26 01:05:51;;;;;;;0.70;0.50;;;;;;;9.84;69.10;99900.28;5104757;28;20592;-72
2023/03/26 01:08:29;;;;;;;0.63;0.43;;;;;;;9.81;69.59;99901.41;5105367;28;20031;-73
2023/03/26 01:11:03;;;;;;;2.10;0.57;;;;;;;9.82;69.21;99903.09;5106365;28;20027;-72
2023/03/26 01:13:43;;;;;;;0.88;0.68;;;;;;;9.70;69.45;99890.00;5105862;28;20486;-73
2023/03/26 01:16:21;;;;;;;1.48;0.43;;;;;;;9.66;70.48;99899.28;5103813;28;20015;-73
2023/03/26 01:18:47;;;;;;;0.50;0.40;;;;;;;9.60;70.69;99900.69;5105037;28;20076;-72
2023/03/26 01:21:21;;;;;;;1.13;0.75;;;;;;;9.54;70.89;99887.84;5105687;28;20504;-72
2023/03/26 01:23:58;;;;;;;1.15;0.70;;;;;;;9.47;71.34;99892.06;5105934;28;20027;-71
2023/03/26 01:26:31;;;;;;;0.57;0.50;;;;;;;9.35;71.38;99877.09;5105854;28;20545;-71
2023/03/26 01:29:01;;;;;;;1.70;0.60;;;;;;;9.37;72.50;99899.22;5103941;28;20038;-71
2023/03/26 01:31:29;;;;;;;0.55;0.50;;;;;;;9.32;72.67;99909.47;5103907;28;20081;-71
2023/03/26 01:34:11;;;;;;;3.00;0.52;;;;;;;9.44;71.92;99904.88;5105766;28;20027;-71
2023/03/26 01:36:54;;;;;;;1.65;0.90;;;;;;;9.55;70.96;99900.25;5103381;28;20019;-71
2023/03/26 01:39:25;;;;;;;0.73;0.60;;;;;;;9.44;71.55;99891.50;5104765;28;20032;-71
2023/03/26 01:41:59;;;;;;;1.08;0.60;;;;;;;9.42;71.53;99893.47;5105553;28;20028;-71
2023/03/26 01:44:47;;;;;;;0.85;0.65;;;;;;;9.45;71.65;99902.06;5106202;28;20427;-72
2023/03/26 01:47:15;;;;;;;1.17;0.80;;;;;;;9.24;71.84;99878.06;5101905;28;20579;-72
2023/03/26 01:49:40;;;;;;;2.15;1.08;;;;;;;9.32;72.30;99890.75;5105509;28;20705;-71
2023/03/26 01:52:24;;;;;;;1.13;0.70;;;;;;;9.27;72.15;99896.53;5105444;28;20031;-72
2023/03/26 01:54:49;;;;;;;2.35;1.23;;;;;;;9.16;72.15;99867.19;5109864;28;20034;-71
2023/03/26 01:57:30;;;;;;;1.67;0.93;;;;;;;9.27;72.87;99906.38;5109787;28;20023;-72
2023/03/26 02:00:19;;;;;;;1.67;0.90;;;;;;;9.07;72.83;99891.25;5109604;28;20030;-71
2023/03/26 02:02:48;;;;;;;1.95;0.93;;;;;;;9.07;73.35;99909.97;5109981;28;20035;-71
2023/03/26 02:05:24;;;;;;;2.83;1.10;;;;;;;9.04;74.25;99910.25;5109344;28;20398;-71
2023/03/26 02:08:08;;;;;;;2.65;1.00;;;;;;;8.94;74.08;99891.47;5109647;28;20535;-71
2023/03/26 02:10:43;;;;;;;2.25;1.17;;;;;;;8.93;74.30;99908.50;5110034;28;20118;-72
2023/03/26 02:13:10;;;;;;;1.88;0.95;;;;;;;8.93;74.56;99915.69;5107413;28;20889;-72
2023/03/26 02:15:35;;;;;;;1.77;1.05;;;;;;;8.83;75.43;99914.78;5107805;28;20400;-72
2023/03/26 02:18:02;;;;;;;1.77;0.95;;;;;;;8.71;75.28;99900.66;5108991;28;20023;-72
2023/03/26 02:20:29;;;;;;;1.67;0.80;;;;;;;8.72;75.78;99915.75;5109755;28;20482;-72
2023/03/26 02:22:58;;;;;;;1.30;0.73;;;;;;;8.68;75.95;99911.63;5108664;28;20019;-72
2023/03/26 02:25:24;;;;;;;1.48;0.85;;;;;;;8.67;75.82;99917.09;5108979;28;20042;-71
2023/03/26 02:27:51;;;;;;;1.67;0.88;;;;;;;8.53;77.02;99896.91;5108518;28;20031;-71
2023/03/26 02:30:28;;;;;;;5.40;0.80;;;;;;;8.59;77.18;99916.91;5107319;28;20019;-72
2023/03/26 02:32:54;;;;;;;2.55;1.10;;;;;;;8.56;77.33;99910.03;5108486;28;20100;-72
2023/03/26 02:35:21;;;;;;;0.80;0.70;;;;;;;8.53;77.56;99909.44;5109528;28;20020;-72
2023/03/26 02:37:49;;;;;;;1.92;0.90;;;;;;;8.40;77.53;99896.28;5108302;28;20024;-72
2023/03/26 02:40:16;;;;;;;0.90;0.60;;;;;;;8.29;77.40;99887.50;5109146;28;20023;-72
2023/03/26 02:42:42;;;;;;;0.82;0.82;;;;;;;8.31;77.78;99882.84;5109179;28;20102;-72
2023/03/26 02:45:08;;;;;;;1.85;0.68;;;;;;;8.39;77.82;99907.91;5109195;28;20055;-72
2023/03/26 02:47:33;;;;;;;1.63;0.80;;;;;;;8.43;77.67;99913.88;5108982;28;20565;-72
2023/03/26 02:50:00;;;;;;;3.63;1.08;;;;;;;8.38;77.15;99890.22;5107592;28;20182;-72
2023/03/26 02:52:26;;;;;;;2.45;1.50;;;;;;;8.49;76.83;99914.19;5107846;28;20023;-72
2023/03/26 02:54:52;;;;;;;1.00;0.75;;;;;;;8.59;75.58;99920.44;5106896;28;20038;-72
2023/03/26 02:57:18;;;;;;;0.82;0.80;;;;;;;8.47;75.90;99905.47;5107774;28;20028;-72
2023/03/26 02:59:45;;;;;;;1.00;0.80;;;;;;;8.49;75.59;99918.69;5107012;28;20054;-72
2023/03/26 03:02:12;;;;;;;1.88;1.00;;;;;;;8.30;76.21;99910.53;5108418;28;20076;-72
2023/03/26 03:04:38;;;;;;;0.98;0.80;;;;;;;8.29;76.64;99920.38;5107756;28;20051;-72
2023/03/26 03:07:04;;;;;;;1.45;1.23;;;;;;;8.35;76.40;99921.69;5108327;28;20031;-72
2023/03/26 03:09:30;;;;;;;1.15;0.85;;;;;;;8.34;76.61;99915.50;5108697;28;20034;-72
2023/03/26 03:11:55;;;;;;;1.58;0.80;;;;;;;8.07;76.59;99885.75;5105895;28;20028;-72
2023/03/26 03:14:20;;;;;;;3.05;0.60;;;;;;;8.15;76.48;99899.31;5108483;28;20080;-72
2023/03/26 03:16:46;;;;;;;1.70;0.90;;;;;;;8.20;76.68;99910.47;5107882;28;20024;-72
2023/03/26 03:19:12;;;;;;;2.05;0.80;;;;;;;8.19;76.68;99913.25;5107665;28;20042;-73
2023/03/26 03:21:38;;;;;;;1.35;0.80;;;;;;;8.12;77.09;99906.72;5107926;28;20024;-73
2023/03/26 03:24:04;;;;;;;0.70;0.60;;;;;;;8.06;77.12;99907.25;5107181;28;20046;-73
2023/03/26 03:26:29;;;;;;;0.95;0.68;;;;;;;8.10;77.47;99914.03;5108150;28;20030;-72
2023/03/26 03:28:56;;;;;;;2.72;0.70;;;;;;;8.19;76.49;99916.75;5108626;28;20359;-72
2023/03/26 03:31:23;;;;;;;3.53;1.25;;;;;;;8.22;75.63;99911.19;5108207;28;20028;-72
2023/03/26 03:33:50;;;;;;;1.70;0.85;;;;;;;8.12;76.29;99912.06;5107752;27;20058;-72
2023/03/26 03:36:22;;;;;;;2.03;1.02;;;;;;;8.20;76.08;99906.94;5108148;28;20032;-72
2023/03/26 03:38:49;;;;;;;5.18;1.23;;;;;;;8.04;76.47;99899.38;5107864;27;20059;-72
2023/03/26 03:41:17;;;;;;;2.65;1.25;;;;;;;8.01;77.12;99912.13;5107680;28;20031;-72
2023/03/26 03:43:43;;;;;;;1.75;0.98;;;;;;;7.94;77.70;99910.94;5108004;28;20042;-72
2023/03/26 03:46:09;;;;;;;1.30;1.20;;;;;;;7.90;78.05;99912.19;5104917;28;20456;-72
2023/03/26 03:48:37;;;;;;;1.90;1.20;;;;;;;7.85;78.34;99917.03;5107803;28;20031;-72
2023/03/26 03:51:02;;;;;;;2.58;1.30;;;;;;;7.69;78.46;99900.59;5108037;28;20542;-72
2023/03/26 03:53:28;;;;;;;4.85;2.03;;;;;;;7.75;78.84;99916.09;5107261;27;20035;-73
2023/03/26 03:55:57;;;;;;;5.35;2.25;;;;;;;7.64;79.32;99902.81;5107247;28;20050;-73
2023/03/26 03:58:26;;;;;;;3.67;2.13;;;;;;;7.69;79.37;99914.81;5107542;28;20043;-72
2023/03/26 04:00:59;;;;;;;4.93;2.50;;;;;;;7.74;79.14;99922.44;5104566;28;20015;-73
2023/03/26 04:03:26;;;;;;;8.75;3.42;;;;;;;7.64;79.64;99906.31;5105990;28;20478;-73
2023/03/26 04:05:53;;;;;;;4.93;2.97;;;;;;;7.69;80.03;99921.94;5105532;28;20031;-72
2023/03/26 04:08:20;;;;;;;5.70;2.90;;;;;;;7.65;80.43;99921.38;5107368;28;20056;-72
2023/03/26 04:10:46;;;;;;;5.43;3.40;;;;;;;7.64;80.33;99926.84;5105969;28;20034;-72
2023/03/26 04:13:13;;;;;;;4.72;2.88;;;;;;;7.68;80.41;99925.59;5106603;28;20035;-72
2023/03/26 04:15:39;;;;;;;7.60;2.40;;;;;;;7.75;79.79;99932.13;5106824;28;20052;-72
2023/03/26 04:18:09;;;;;;;4.20;2.30;;;;;;;7.74;79.71;99925.09;5106023;28;20020;-72
2023/03/26 04:20:36;;;;;;;7.05;2.40;;;;;;;7.63;80.23;99912.63;5105677;28;20027;-72
2023/03/26 04:23:03;;;;;;;3.28;2.25;;;;;;;7.57;80.61;99921.13;5104564;28;20032;-72
2023/03/26 04:25:29;;;;;;;4.25;2.05;;;;;;;7.37;80.61;99894.38;5104853;28;20424;-72
2023/03/26 04:27:57;;;;;;;4.25;2.25;;;;;;;7.50;80.63;99921.75;5106768;28;20100;-72
2023/03/26 04:30:23;;;;;;;6.28;2.17;;;;;;;7.48;81.46;99921.88;5106539;28;20046;-72
2023/03/26 04:32:48;;;;;;;2.65;1.73;;;;;;;7.43;81.31;99926.75;5105169;28;20024;-72
2023/03/26 04:35:18;;;;;;;3.92;2.00;;;;;;;7.36;81.65;99911.38;5106727;28;20047;-72
2023/03/26 04:37:44;;;;;;;3.30;2.17;;;;;;;7.23;81.92;99892.84;5105702;28;20034;-71
2023/03/26 04:40:20;;;;;;;4.20;1.90;;;;;;;7.37;82.33;99924.59;5107186;28;20027;-72
2023/03/26 04:42:46;;;;;;;3.55;1.63;;;;;;;7.26;82.32;99916.63;5105211;28;20500;-73
2023/03/26 04:45:21;;;;;;;5.43;1.88;;;;;;;7.22;82.80;99907.13;5104994;28;20020;-72
2023/03/26 04:47:47;;;;;;;3.95;2.13;;;;;;;7.31;83.16;99929.56;5105150;28;20444;-72
2023/03/26 04:50:13;;;;;;;2.28;1.77;;;;;;;7.20;82.67;99913.56;5104965;28;20051;-71
2023/03/26 04:52:39;;;;;;;4.07;2.22;;;;;;;7.18;83.05;99910.16;5106889;27;20055;-72
2023/03/26 04:55:15;;;;;;;4.18;2.30;;;;;;;7.21;83.10;99921.47;5105244;28;20031;-71
2023/03/26 04:57:45;;;;;;;5.18;2.22;;;;;;;7.28;84.15;99937.81;5104708;28;20114;-72
2023/03/26 05:00:18;;;;;;;4.85;2.30;;;;;;;7.26;83.84;99943.28;5106928;28;20027;-72
2023/03/26 05:02:44;;;;;;;4.07;2.25;;;;;;;7.21;84.11;99928.59;5105759;28;20023;-71
2023/03/26 05:05:10;;;;;;;4.85;2.03;;;;;;;7.24;84.36;99947.88;5106872;28;20422;-71
2023/03/26 05:07:37;;;;;;;3.58;2.13;;;;;;;7.22;85.06;99943.66;5104633;28;20081;-71
2023/03/26 05:10:03;;;;;;;4.45;2.40;;;;;;;7.17;84.55;99943.16;5106975;28;20075;-72
2023/03/26 05:12:29;;;;;;;4.45;2.70;;;;;;;7.09;85.08;99926.94;5106648;28;20031;-72
2023/03/26 05:14:55;;;;;;;4.40;2.85;;;;;;;7.18;85.58;99955.50;5106113;28;20521;-72
2023/03/26 05:17:23;;;;;;;4.45;2.85;;;;;;;7.15;85.42;99943.28;5106487;28;20047;-73
2023/03/26 05:19:50;;;;;;;5.60;3.60;;;;;;;7.07;85.42;99939.53;5105153;28;20543;-72
2023/03/26 05:22:16;;;;;;;5.40;3.13;;;;;;;7.03;85.38;99933.56;5105437;28;20547;-72
2023/03/26 05:24:42;;;;;;;6.20;3.38;;;;;;;7.16;85.67;99960.13;5105925;28;20094;-73
2023/03/26 05:27:08;;;;;;;5.80;3.53;;;;;;;7.00;85.90;99937.34;5103742;28;20084;-72
2023/03/26 05:29:33;;;;;;;6.32;4.03;;;;;;;6.98;86.41;99931.31;5098357;28;20027;-72
2023/03/26 05:31:59;;;;;;;7.05;3.97;;;;;;;7.04;86.88;99945.97;5102766;28;20030;-72
2023/03/26 05:34:26;;;;;;;6.28;4.00;;;;;;;6.98;87.19;99933.97;5102000;28;20429;-72
2023/03/26 05:36:51;;;;;;;5.47;3.35;;;;;;;6.93;87.44;99919.28;5102512;28;20291;-72
2023/03/26 05:39:17;;;;;;;4.85;3.65;;;;;;;7.00;87.46;99942.69;5103727;28;20570;-72
2023/03/26 05:41:43;;;;;;;7.18;4.60;;;;;;;7.11;88.09;99947.16;5106101;28;20502;-73
2023/03/26 05:44:09;;;;;;;6.45;4.50;;;;;;;7.17;88.18;99959.16;5106367;28;20156;-73
2023/03/26 05:46:34;;;;;;;9.80;5.65;;;;;;;7.14;88.63;99956.72;5105934;28;20047;-73
2023/03/26 05:49:01;;;;;;;9.38;5.20;;;;;;;7.25;89.27;99968.25;5104782;28;20071;-72
2023/03/26 05:51:27;;;;;;;7.55;4.63;;;;;;;7.30;89.16;99957.19;5105846;28;20120;-72
2023/03/26 05:53:52;;;;;;;4.28;2.78;;;;;;;7.24;89.45;99947.03;5105991;28;20052;-73
2023/03/26 05:56:17;;;;;;;7.28;2.63;;;;;;;7.34;89.23;99953.31;5105560;28;20039;-73
2023/03/26 05:58:43;;;;;;;4.28;2.13;;;;;;;7.45;88.87;99945.31;5103848;28;20543;-73
2023/03/26 06:01:15;;;;;;;4.85;2.22;;;;;;;7.49;88.43;99936.06;5104810;28;20020;-73
2023/03/26 06:03:43;;;;;;;5.55;2.50;;;;;;;7.76;87.14;99939.16;5102798;28;20471;-73
2023/03/26 06:06:14;;;;;;;3.78;2.63;;;;;;;7.95;85.63;99947.34;5104939;28;20389;-73
2023/03/26 06:08:47;;;;;;;6.30;2.50;;;;;;;8.02;86.02;99956.53;5105648;28;20087;-73
2023/03/26 06:11:13;;;;;;;3.27;2.33;;;;;;;7.97;85.28;99916.03;5106156;28;20031;-73
2023/03/26 06:13:40;;;;;;;3.08;2.25;;;;;;;8.19;84.20;99931.97;5107350;28;20263;-73
2023/03/26 06:16:06;;;;;;;4.90;2.08;;;;;;;8.25;84.89;99926.97;5106370;28;20084;-73
2023/03/26 06:18:31;;;;;;;2.10;1.50;;;;;;;8.41;84.37;99927.34;5105941;28;20028;-73
2023/03/26 06:20:57;;;;;;;2.85;1.55;;;;;;;8.59;84.50;99932.97;5107614;28;20909;-73
2023/03/26 06:23:22;;;;;;;2.28;1.50;;;;;;;8.74;83.25;99924.47;5107636;28;20066;-73
2023/03/26 06:25:48;;;;;;;4.32;1.88;;;;;;;8.96;83.08;99929.63;5105712;28;20023;-73
2023/03/26 06:28:14;;;;;;;3.45;1.85;;;;;;;9.23;80.71;99932.56;5106704;28;20023;-73
2023/03/26 06:30:41;;;;;;;3.33;2.05;;;;;;;9.45;79.45;99933.34;5108114;28;20028;-72
2023/03/26 06:33:07;;;;;;;2.15;1.52;;;;;;;9.63;78.18;99924.50;5106861;28;20483;-74
2023/03/26 06:35:32;;;;;;;4.25;1.83;;;;;;;9.84;75.66;99917.22;5107932;28;20074;-73
2023/03/26 06:37:58;;;;;;;4.70;1.40;;;;;;;10.15;74.17;99921.47;5106501;28;20103;-74
2023/03/26 06:40:24;;;;;;;2.50;1.80;;;;;;;10.33;73.28;99919.78;5112055;28;20031;-74
2023/03/26 06:42:50;;;;;;;2.92;1.83;;;;;;;10.42;72.93;99896.63;5113811;28;20039;-74
2023/03/26 06:45:16;;;;;;;4.68;2.72;;;;;;;10.76;71.85;99912.06;5112513;28;20466;-74
2023/03/26 06:47:42;;;;;;;2.92;1.70;;;;;;;10.95;70.70;99903.94;5115195;28;20085;-74
2023/03/26 06:50:09;;;;;;;5.30;2.55;;;;;;;11.29;68.66;99915.78;5117310;28;20076;-74
2023/03/26 06:52:34;;;;;;;2.63;1.63;;;;;;;11.49;67.68;99900.44;5116410;28;20024;-74
2023/03/26 06:55:00;;;;;;;1.63;1.52;;;;;;;11.81;66.96;99906.19;5114047;28;20028;-74
2023/03/26 06:57:26;;;;;;;2.53;1.50;;;;;;;12.02;64.99;99887.06;5112353;28;20058;-73
2023/03/26 06:59:51;;;;;;;3.53;2.13;;;;;;;12.30;64.26;99899.41;5109812;28;20031;-72
2023/03/26 07:02:17;;;;;;;6.85;4.00;;;;;;;12.56;63.51;99908.34;5100891;27;20266;-73
2023/03/26 07:04:42;;;;;;;3.67;2.53;;;;;;;12.72;62.95;99886.94;5107538;28;20034;-73
2023/03/26 07:07:07;;;;;;;6.50;2.58;;;;;;;13.10;61.47;99914.25;5102283;28;20054;-72
2023/03/26 07:09:33;;;;;;;3.22;2.10;;;;;;;13.40;60.09;99926.34;5107216;28;20376;-72
2023/03/26 07:11:59;;;;;;;2.42;2.00;;;;;;;13.51;59.35;99912.56;5109836;28;20035;-73
2023/03/26 07:14:26;;;;;;;4.32;2.40;;;;;;;13.72;59.33;99934.56;5110475;28;20039;-72
2023/03/26 07:16:52;;;;;;;4.03;2.30;;;;;;;13.80;59.21;99939.13;5111173;27;20039;-73
2023/03/26 07:19:17;;;;;;;4.20;2.13;;;;;;;13.99;57.98;99939.66;5110224;28;20047;-73
2023/03/26 07:21:45;;;;;;;4.72;2.17;;;;;;;14.22;58.00;99946.09;5111982;27;20058;-73
2023/03/26 07:24:12;;;;;;;2.72;1.90;;;;;;;14.43;56.44;99951.91;5112277;27;20028;-72
2023/03/26 07:26:52;;;;;;;3.20;2.13;;;;;;;14.53;56.52;99941.78;5112931;27;20039;-73
2023/03/26 07:29:33;;;;;;;2.50;1.88;;;;;;;14.74;56.36;99946.69;5111634;28;20096;-72
2023/03/26 07:32:13;;;;;;;3.40;2.60;;;;;;;14.82;56.18;99949.34;5110300;28;20462;-72
2023/03/26 07:34:55;;;;;;;3.75;2.10;;;;;;;14.96;56.50;99943.28;5113795;28;20030;-72
2023/03/26 07:37:44;;;;;;;2.65;2.20;;;;;;;15.16;54.86;99931.06;5109501;28;20119;-73
2023/03/26 07:40:28;;;;;;;2.28;2.00;;;;;;;15.32;54.23;99939.94;5108446;28;20044;-73
2023/03/26 07:43:08;;;;;;;6.32;2.58;;;;;;;15.51;54.03;99950.38;5110378;28;20440;-72
2023/03/26 07:45:42;;;;;;;3.38;2.20;;;;;;;15.68;52.81;99932.25;5111022;28;20076;-73
2023/03/26 07:48:16;;;;;;;4.40;2.30;;;;;;;15.81;52.51;99924.41;5109077;28;20707;-72
2023/03/26 07:50:43;;;;;;;3.95;2.30;;;;;;;16.00;52.04;99923.09;5108628;28;20034;-72
2023/03/26 07:53:09;;;;;;;2.92;2.30;;;;;;;16.44;50.76;99929.59;5106940;28;20042;-72
2023/03/26 07:55:46;;;;;;;2.50;2.03;;;;;;;16.68;51.16;99932.94;5108889;28;20024;-73
2023/03/26 07:58:33;;;;;;;2.42;1.88;;;;;;;17.28;49.72;99944.50;5105898;27;20074;-72
2023/03/26 08:01:09;;;;;;;4.53;2.55;;;;;;;17.75;47.38;99936.84;5105294;28;20031;-72
2023/03/26 08:03:46;;;;;;;3.40;2.03;;;;;;;18.55;45.89;99934.84;5100074;28;20042;-73
2023/03/26 08:06:21;;;;;;;2.55;1.88;;;;;;;18.99;44.45;99916.38;5103280;28;20062;-72
2023/03/26 08:08:56;;;;;;;3.35;2.45;;;;;;;20.70;40.84;99929.69;5101872;28;20051;-72
2023/03/26 08:11:53;;;;;;;3.25;1.60;;;;;;;22.01;37.40;99933.84;5103535;28;20773;-72
2023/03/26 08:14:46;;;;;;;2.90;2.10;;;;;;;23.14;35.02;99926.34;5103856;28;20372;-72
2023/03/26 08:17:48;;;;;;;4.15;1.58;;;;;;;24.03;34.05;99923.91;5104093;28;20095;-72
2023/03/26 08:20:19;;;;;;;2.53;1.63;;;;;;;24.51;33.59;99923.88;5018304;28;20058;-72
2023/03/26 08:22:52;;;;;;;3.90;1.70;;;;;;;25.53;31.80;99929.72;5107297;28;20035;-72
2023/03/26 08:25:26;;;;;;;;;;;;;;;26.40;30.67;99927.50;5107516;28;20031;-72
2023/03/26 08:28:26;;;;;;;1.95;1.80;;;;;;;26.87;30.17;99914.34;5106122;27;19915;-72
2023/03/26 08:30:53;;;;;;;2.25;1.90;;;;;;;27.23;29.64;99900.06;5104503;28;20039;-72
2023/03/26 08:33:20;;;;;;;2.55;1.77;;;;;;;27.47;29.49;99900.69;5104856;27;20928;-72
2023/03/26 08:35:46;;;;;;;2.30;1.88;;;;;;;27.68;28.97;99897.97;5106608;28;20032;-72
2023/03/26 08:38:15;;;;;;;3.55;1.73;;;;;;;28.03;28.57;99889.31;5106463;28;20023;-72
2023/03/26 08:41:06;;;;;;;3.17;2.00;;;;;;;28.56;27.60;99897.63;5106974;28;20431;-72
2023/03/26 08:44:01;;;;;;;1.73;1.40;;;;;;;29.09;26.20;99889.31;5092292;28;20088;-72
2023/03/26 08:46:45;;;;;;;2.33;1.25;;;;;;;29.30;25.98;99887.53;5105033;28;20148;-73
2023/03/26 08:49:44;;;;;;;2.83;1.40;;;;;;;29.26;25.01;99878.91;5105997;28;20042;-72
2023/03/26 08:52:34;;;;;;;3.25;1.50;;;;;;;29.68;24.43;99876.97;5102772;28;20023;-72
2023/03/26 08:55:28;;;;;;;1.73;1.27;;;;;;;29.62;24.93;99878.06;5106211;28;20544;-72
2023/03/26 08:57:59;;;;;;;;;;;;;;;30.13;24.20;99870.78;5103665;28;20100;-72
2023/03/26 09:00:53;;;;;;;1.00;0.90;;;;;;;30.60;23.26;99846.53;5104677;28;19911;-72
2023/03/26 09:03:40;;;;;;;3.47;1.33;;;;;;;30.71;23.91;99856.50;5105756;28;20031;-74
2023/03/26 09:06:23;;;;;;;2.75;1.27;;;;;;;30.28;24.02;99855.06;5106257;28;20028;-73
2023/03/26 09:09:04;;;;;;;2.28;1.15;;;;;;;30.93;23.21;99854.31;5105792;28;20407;-74
2023/03/26 09:11:47;;;;;;;1.83;0.90;;;;;;;32.16;20.38;99852.56;5107036;28;20050;-71
2023/03/26 09:14:52;;;;;;;2.05;0.80;;;;;;;31.41;21.04;99837.06;5105153;28;20035;-72
2023/03/26 09:17:24;;;;;;;4.07;0.80;;;;;;;32.14;20.21;99838.97;5103496;28;20039;-71
2023/03/26 09:19:55;;;;;;;0.88;0.57;;;;;;;32.46;20.12;99838.50;5106136;28;20037;-72
2023/03/26 09:22:40;;;;;;;1.60;0.70;;;;;;;32.15;20.04;99843.38;5105192;28;20478;-72
2023/03/26 09:25:18;;;;;;;0.85;0.60;;;;;;;32.85;19.71;99819.84;5104201;28;20436;-71
2023/03/26 09:28:03;;;;;;;1.40;0.70;;;;;;;33.19;19.67;99831.75;5106416;28;20176;-73
2023/03/26 09:31:01;;;;;;;1.02;0.82;;;;;;;32.59;19.56;99821.19;5104948;28;20172;-73
2023/03/26 09:33:58;;;;;;;1.65;0.73;;;;;;;33.11;19.50;99820.47;5105870;28;20027;-73
2023/03/26 09:36:31;;;;;;;1.85;0.70;;;;;;;33.32;19.65;99824.66;5105621;28;20043;-73
2023/03/26 09:39:02;;;;;;;0.70;0.70;;;;;;;33.50;19.12;99818.38;5105874;28;20077;-73
2023/03/26 09:42:08;;;;;;;0.90;0.70;;;;;;;33.73;18.63;99823.09;5105836;28;20046;-73
2023/03/26 09:45:21;;;;;;;1.70;0.85;;;;;;;33.77;19.30;99815.78;5103588;28;20038;-73
2023/03/26 09:48:11;;;;;;;1.42;0.68;;;;;;;33.54;18.98;99819.44;5050124;28;20072;-72
2023/03/26 09:51:01;;;;;;;0.90;0.68;;;;;;;32.84;19.16;99811.78;5104068;28;20482;-73
2023/03/26 09:54:05;;;;;;;1.15;0.70;;;;;;;32.78;19.35;99802.69;5103817;28;20023;-72
2023/03/26 09:56:56;;;;;;;1.00;0.80;;;;;;;32.18;20.16;99780.94;5085217;28;22388;-72
2023/03/26 09:59:59;;;;;;;1.58;0.80;;;;;;;30.74;21.43;99785.91;5103915;28;20580;-72
2023/03/26 10:02:57;;;;;;;1.27;0.60;;;;;;;29.63;22.64;99790.44;5102929;28;20043;-72
2023/03/26 10:05:40;;;;;;;2.75;0.93;;;;;;;28.43;23.37;99777.47;5104665;28;20032;-72
2023/03/26 10:08:36;;;;;;;3.25;0.90;;;;;;;27.69;24.41;99777.50;5103629;28;20644;-72
2023/03/26 10:11:26;;;;;;;1.45;1.00;;;;;;;28.24;23.36;99784.47;5105671;28;20522;-72
2023/03/26 10:13:51;;;;;;;2.80;1.20;;;;;;;26.91;25.07;99777.00;5107382;28;20123;-73
2023/03/26 10:16:33;;;;;;;2.97;0.95;;;;;;;26.35;25.62;99769.81;5109608;28;20122;-72
2023/03/26 10:19:06;;;;;;;2.47;1.02;;;;;;;25.65;26.55;99762.97;5107941;28;20041;-72
2023/03/26 10:21:54;;;;;;;2.85;0.93;;;;;;;25.70;27.04;99771.34;5108220;27;20478;-71
2023/03/26 10:24:37;;;;;;;1.02;0.65;;;;;;;24.33;28.79;99749.31;5106207;28;20053;-71
2023/03/26 10:27:13;;;;;;;1.42;0.82;;;;;;;23.52;29.78;99742.75;5107974;28;20123;-71
2023/03/26 10:30:07;;;;;;;8.07;1.20;;;;;;;23.92;29.52;99766.59;5110360;28;20143;-71
2023/03/26 10:32:45;;;;;;;1.63;0.90;;;;;;;23.51;29.88;99750.13;5108372;28;20088;-71
2023/03/26 10:35:38;;;;;;;1.52;0.82;;;;;;;23.04;30.64;99744.59;5108378;28;20027;-72
2023/03/26 10:38:22;;;;;;;0.80;0.80;;;;;;;22.51;30.84;99741.63;5109986;28;20045;-71
2023/03/26 10:40:54;;;;;;;2.40;0.73;;;;;;;21.92;31.44;99723.00;5108941;28;20127;-72
2023/03/26 10:43:41;;;;;;;0.75;0.60;;;;;;;21.54;31.55;99713.16;5109282;28;20034;-72
2023/03/26 10:46:25;;;;;;;1.92;0.70;;;;;;;21.36;32.02;99715.78;5106892;28;20040;-71
2023/03/26 10:49:32;;;;;;;0.73;0.70;;;;;;;21.01;32.59;99718.06;5109489;28;20099;-72
2023/03/26 10:52:02;;;;;;;0.73;0.50;;;;;;;20.95;31.84;99716.19;5093201;28;20562;-71
2023/03/26 10:55:15;;;;;;;1.95;0.52;;;;;;;21.09;30.43;99709.59;5110086;28;20778;-71
2023/03/26 10:57:48;;;;;;;0.80;0.50;;;;;;;21.15;31.74;99713.38;5087261;28;20044;-72
2023/03/26 11:00:25;;;;;;;1.95;0.90;;;;;;;20.93;33.30;99707.34;5109948;28;20394;-72
2023/03/26 11:03:17;;;;;;;1.45;1.05;;;;;;;20.92;34.60;99705.66;5110435;28;20391;-71
2023/03/26 11:06:04;;;;;;;2.63;0.80;;;;;;;20.85;33.41;99695.84;5107879;28;20058;-71
2023/03/26 11:08:33;;;;;;;0.82;0.80;;;;;;;20.71;35.43;99695.06;5110135;28;20023;-70
2023/03/26 11:11:26;;;;;;;2.53;1.30;;;;;;;20.51;36.19;99696.16;5110564;28;20058;-73
2023/03/26 11:14:09;;;;;;;1.98;0.95;;;;;;;20.46;35.49;99679.63;5110257;28;20168;-71
2023/03/26 11:16:53;;;;;;;2.30;0.80;;;;;;;20.51;34.31;99688.84;5109975;28;20027;-71
2023/03/26 11:19:28;;;;;;;1.07;0.83;;;;;;;20.41;34.39;99684.88;5110358;28;20448;-71
2023/03/26 11:22:19;;;;;;;1.65;0.57;;;;;;;20.36;35.20;99684.66;5108702;28;20072;-71
2023/03/26 11:25:20;;;;;;;0.82;0.68;;;;;;;19.92;35.49;99642.59;5110238;28;20027;-72
2023/03/26 11:28:04;;;;;;;2.47;0.60;;;;;;;20.25;35.16;99671.72;5108263;27;20024;-71
2023/03/26 11:30:41;;;;;;;1.23;0.80;;;;;;;19.95;35.35;99666.69;5107236;28;20031;-71
2023/03/26 11:33:12;;;;;;;2.42;0.57;;;;;;;19.82;36.12;99666.69;5106202;28;20031;-71
2023/03/26 11:35:44;;;;;;;1.40;0.73;;;;;;;19.71;34.73;99663.75;5106521;28;20019;-71
2023/03/26 11:38:17;;;;;;;0.70;0.47;;;;;;;19.53;34.47;99644.47;5106207;28;20491;-70
2023/03/26 11:40:49;;;;;;;4.00;0.60;;;;;;;19.29;35.33;99624.19;5107285;28;21761;-71
2023/03/26 11:43:17;;;;;;;1.67;0.90;;;;;;;19.51;35.11;99644.69;5106695;28;20024;-71
2023/03/26 11:45:46;;;;;;;1.40;0.50;;;;;;;19.48;34.90;99626.06;5107350;27;20822;-70
2023/03/26 11:48:24;;;;;;;1.23;0.40;;;;;;;19.50;33.93;99634.03;5106768;28;20522;-71
2023/03/26 11:50:56;;;;;;;0.50;0.50;;;;;;;19.34;33.97;99618.94;5103660;27;20055;-71
2023/03/26 11:53:31;;;;;;;1.90;1.00;;;;;;;19.53;35.29;99623.56;5106944;28;20059;-71
2023/03/26 11:56:03;;;;;;;0.65;0.50;;;;;;;19.86;31.71;99624.38;5107075;27;20044;-71
2023/03/26 11:58:50;;;;;;;0.50;0.40;;;;;;;19.63;31.68;99615.81;5107989;28;20455;-71
2023/03/26 12:01:29;;;;;;;1.20;0.60;;;;;;;19.45;32.86;99609.34;5107293;28;20051;-70
2023/03/26 12:03:57;;;;;;;1.13;0.60;;;;;;;19.39;33.40;99593.84;5105726;28;20114;-71
2023/03/26 12:06:26;;;;;;;1.10;0.60;;;;;;;19.34;34.61;99580.88;5101898;28;20059;-71
2023/03/26 12:08:51;;;;;;;1.58;0.70;;;;;;;19.50;34.49;99582.34;5106782;28;20027;-71